sensor_id;sensor_type;location;lat;lon;timestamp;P1;durP1;ratioP1;P2;durP2;ratioP2
12912;SDS011;6524;51.368;11.984;2023-07-22T04:03:38;9.75;;;8.75;;
12912;SDS011;6524;51.368;11.984;2023-07-22T04:08:38;11.05;;;9.75;;
12912;SDS011;6524;51.368;11.984;2023-07-22T04:13:38;10.85;;;9.07;;
12912;SDS011;6524;51.368;11.984;2023-07-22T04:18:39;9.70;;;8.80;;
12912;SDS011;6524;51.368;11.984;2023-07-22T04:23:39;10.45;;;9.43;;
12912;SDS011;6524;51.368;11.984;2023-07-22T04:28:39;10.07;;;9.02;;
12912;SDS011;6524;51.368;11.984;2023-07-22T04:33:40;10.68;;;8.95;;
12912;SDS011;6524;51.368;11.984;2023-07-22T04:38:41;9.05;;;8.15;;
12912;SDS011;6524;51.368;11.984;2023-07-22T04:43:41;9.90;;;8.85;;
12912;SDS011;6524;51.368;11.984;2023-07-22T04:48:42;10.77;;;9.68;;
12912;SDS011;6524;51.368;11.984;2023-07-22T04:53:42;9.63;;;8.63;;
12912;SDS011;6524;51.368;11.984;2023-07-22T04:58:46;9.63;;;8.70;;
12912;SDS011;6524;51.368;11.984;2023-07-22T05:03:46;10.98;;;9.15;;
12912;SDS011;6524;51.368;11.984;2023-07-22T05:08:47;9.90;;;8.90;;
12912;SDS011;6524;51.368;11.984;2023-07-22T05:13:47;8.98;;;7.88;;
12912;SDS011;6524;51.368;11.984;2023-07-22T05:18:50;10.35;;;8.20;;
12912;SDS011;6524;51.368;11.984;2023-07-22T05:23:51;8.18;;;7.38;;
12912;SDS011;6524;51.368;11.984;2023-07-22T05:28:51;10.75;;;7.82;;
12912;SDS011;6524;51.368;11.984;2023-07-22T05:33:52;10.02;;;8.35;;
12912;SDS011;6524;51.368;11.984;2023-07-22T05:38:52;12.52;;;8.10;;
12912;SDS011;6524;51.368;11.984;2023-07-22T05:43:52;8.60;;;7.45;;
12912;SDS011;6524;51.368;11.984;2023-07-22T05:48:53;9.18;;;7.30;;
12912;SDS011;6524;51.368;11.984;2023-07-22T05:53:53;8.37;;;7.43;;
12912;SDS011;6524;51.368;11.984;2023-07-22T05:58:53;10.02;;;7.68;;
12912;SDS011;6524;51.368;11.984;2023-07-22T06:04:00;10.93;;;7.57;;
12912;SDS011;6524;51.368;11.984;2023-07-22T06:09:00;10.70;;;7.88;;
12912;SDS011;6524;51.368;11.984;2023-07-22T06:14:01;9.88;;;7.88;;
12912;SDS011;6524;51.368;11.984;2023-07-22T06:19:03;10.75;;;7.72;;
12912;SDS011;6524;51.368;11.984;2023-07-22T06:24:04;11.35;;;7.90;;
12912;SDS011;6524;51.368;11.984;2023-07-22T06:29:04;7.35;;;6.57;;
12912;SDS011;6524;51.368;11.984;2023-07-22T06:34:05;8.38;;;6.18;;
12912;SDS011;6524;51.368;11.984;2023-07-22T06:39:06;6.38;;;5.63;;
12912;SDS011;6524;51.368;11.984;2023-07-22T06:44:07;6.10;;;5.50;;
12912;SDS011;6524;51.368;11.984;2023-07-22T06:49:07;14.97;;;7.83;;
12912;SDS011;6524;51.368;11.984;2023-07-22T06:54:07;16.93;;;7.40;;
12912;SDS011;6524;51.368;11.984;2023-07-22T06:59:08;17.40;;;8.23;;
12912;SDS011;6524;51.368;11.984;2023-07-22T07:04:08;9.63;;;5.85;;
12912;SDS011;6524;51.368;11.984;2023-07-22T07:09:09;6.32;;;5.40;;
12912;SDS011;6524;51.368;11.984;2023-07-22T07:14:09;7.18;;;5.47;;
12912;SDS011;6524;51.368;11.984;2023-07-22T07:19:09;6.07;;;4.82;;
12912;SDS011;6524;51.368;11.984;2023-07-22T07:24:10;5.68;;;4.43;;
12912;SDS011;6524;51.368;11.984;2023-07-22T07:29:10;5.03;;;4.50;;
12912;SDS011;6524;51.368;11.984;2023-07-22T07:34:10;4.97;;;4.47;;
12912;SDS011;6524;51.368;11.984;2023-07-22T07:39:11;5.28;;;4.65;;
12912;SDS011;6524;51.368;11.984;2023-07-22T07:44:11;7.03;;;4.30;;
12912;SDS011;6524;51.368;11.984;2023-07-22T07:49:12;4.85;;;4.45;;
12912;SDS011;6524;51.368;11.984;2023-07-22T07:54:12;5.78;;;4.70;;
12912;SDS011;6524;51.368;11.984;2023-07-22T07:59:12;5.47;;;4.43;;
12912;SDS011;6524;51.368;11.984;2023-07-22T08:04:13;4.80;;;4.40;;
12912;SDS011;6524;51.368;11.984;2023-07-22T08:09:13;4.25;;;3.85;;
12912;SDS011;6524;51.368;11.984;2023-07-22T08:14:18;6.45;;;4.38;;
12912;SDS011;6524;51.368;11.984;2023-07-22T08:19:19;4.43;;;4.03;;
12912;SDS011;6524;51.368;11.984;2023-07-22T08:24:19;5.80;;;4.23;;
12912;SDS011;6524;51.368;11.984;2023-07-22T08:29:19;4.50;;;4.10;;
12912;SDS011;6524;51.368;11.984;2023-07-22T08:34:20;4.38;;;3.97;;
12912;SDS011;6524;51.368;11.984;2023-07-22T08:39:20;4.40;;;4.00;;
12912;SDS011;6524;51.368;11.984;2023-07-22T08:44:20;7.07;;;4.30;;
12912;SDS011;6524;51.368;11.984;2023-07-22T08:49:21;4.90;;;4.35;;
12912;SDS011;6524;51.368;11.984;2023-07-22T08:54:23;5.15;;;4.35;;
12912;SDS011;6524;51.368;11.984;2023-07-22T08:59:24;5.45;;;4.60;;
12912;SDS011;6524;51.368;11.984;2023-07-22T09:04:24;4.75;;;4.35;;
12912;SDS011;6524;51.368;11.984;2023-07-22T09:09:25;4.85;;;4.45;;
12912;SDS011;6524;51.368;11.984;2023-07-22T09:14:25;6.00;;;4.50;;
12912;SDS011;6524;51.368;11.984;2023-07-22T09:19:26;4.60;;;4.13;;
12912;SDS011;6524;51.368;11.984;2023-07-22T09:24:26;4.30;;;3.90;;
12912;SDS011;6524;51.368;11.984;2023-07-22T09:29:35;5.55;;;4.53;;
12912;SDS011;6524;51.368;11.984;2023-07-22T09:34:37;7.05;;;4.60;;
12912;SDS011;6524;51.368;11.984;2023-07-22T09:39:37;6.80;;;5.27;;
12912;SDS011;6524;51.368;11.984;2023-07-22T09:44:37;6.07;;;4.60;;
12912;SDS011;6524;51.368;11.984;2023-07-22T09:49:41;4.90;;;4.07;;
12912;SDS011;6524;51.368;11.984;2023-07-22T09:54:51;4.38;;;3.97;;
12912;SDS011;6524;51.368;11.984;2023-07-22T09:59:51;4.47;;;4.10;;
12912;SDS011;6524;51.368;11.984;2023-07-22T10:04:53;4.38;;;3.97;;
12912;SDS011;6524;51.368;11.984;2023-07-22T10:09:59;4.53;;;4.10;;
12912;SDS011;6524;51.368;11.984;2023-07-22T10:15:00;4.53;;;3.88;;
12912;SDS011;6524;51.368;11.984;2023-07-22T10:20:02;3.80;;;3.50;;
12912;SDS011;6524;51.368;11.984;2023-07-22T10:25:07;4.55;;;3.78;;
12912;SDS011;6524;51.368;11.984;2023-07-22T10:30:09;4.35;;;3.95;;
12912;SDS011;6524;51.368;11.984;2023-07-22T10:35:10;5.28;;;3.90;;
12912;SDS011;6524;51.368;11.984;2023-07-22T10:40:16;4.40;;;4.00;;
12912;SDS011;6524;51.368;11.984;2023-07-22T10:45:25;4.13;;;3.30;;
12912;SDS011;6524;51.368;11.984;2023-07-22T10:50:38;4.00;;;3.70;;
12912;SDS011;6524;51.368;11.984;2023-07-22T11:01:20;4.07;;;3.65;;
12912;SDS011;6524;51.368;11.984;2023-07-22T11:06:24;4.20;;;3.80;;
12912;SDS011;6524;51.368;11.984;2023-07-22T11:11:35;4.30;;;3.90;;
12912;SDS011;6524;51.368;11.984;2023-07-22T11:16:37;4.40;;;4.00;;
12912;SDS011;6524;51.368;11.984;2023-07-22T11:21:37;4.77;;;3.90;;
12912;SDS011;6524;51.368;11.984;2023-07-22T11:26:38;4.63;;;4.22;;
12912;SDS011;6524;51.368;11.984;2023-07-22T11:31:40;4.45;;;4.03;;
12912;SDS011;6524;51.368;11.984;2023-07-22T11:36:43;4.82;;;4.03;;
12912;SDS011;6524;51.368;11.984;2023-07-22T11:41:44;4.40;;;4.00;;
12912;SDS011;6524;51.368;11.984;2023-07-22T11:46:46;4.82;;;4.28;;
12912;SDS011;6524;51.368;11.984;2023-07-22T11:51:49;4.75;;;4.25;;
12912;SDS011;6524;51.368;11.984;2023-07-22T11:56:49;4.57;;;4.10;;
12912;SDS011;6524;51.368;11.984;2023-07-22T12:01:50;4.47;;;4.07;;
12912;SDS011;6524;51.368;11.984;2023-07-22T12:06:52;4.25;;;3.85;;
12912;SDS011;6524;51.368;11.984;2023-07-22T12:11:57;4.60;;;4.18;;
12912;SDS011;6524;51.368;11.984;2023-07-22T12:17:00;5.10;;;4.30;;
12912;SDS011;6524;51.368;11.984;2023-07-22T12:22:04;4.88;;;4.47;;
12912;SDS011;6524;51.368;11.984;2023-07-22T12:27:05;5.20;;;4.68;;
12912;SDS011;6524;51.368;11.984;2023-07-22T12:32:06;4.60;;;4.20;;
12912;SDS011;6524;51.368;11.984;2023-07-22T12:37:07;5.07;;;4.57;;
12912;SDS011;6524;51.368;11.984;2023-07-22T12:42:08;5.00;;;4.47;;
12912;SDS011;6524;51.368;11.984;2023-07-22T12:47:08;5.40;;;4.90;;
12912;SDS011;6524;51.368;11.984;2023-07-22T12:52:09;5.03;;;4.53;;
12912;SDS011;6524;51.368;11.984;2023-07-22T12:57:10;5.07;;;4.53;;
12912;SDS011;6524;51.368;11.984;2023-07-22T13:02:14;6.60;;;4.70;;
12912;SDS011;6524;51.368;11.984;2023-07-22T13:07:22;4.95;;;4.45;;
12912;SDS011;6524;51.368;11.984;2023-07-22T13:12:23;4.70;;;4.30;;
12912;SDS011;6524;51.368;11.984;2023-07-22T13:17:23;4.80;;;4.40;;
12912;SDS011;6524;51.368;11.984;2023-07-22T13:22:23;5.32;;;4.75;;
12912;SDS011;6524;51.368;11.984;2023-07-22T13:27:24;4.95;;;4.50;;
12912;SDS011;6524;51.368;11.984;2023-07-22T13:32:24;4.43;;;4.03;;
12912;SDS011;6524;51.368;11.984;2023-07-22T13:37:24;4.32;;;3.92;;
12912;SDS011;6524;51.368;11.984;2023-07-22T13:42:25;4.80;;;4.40;;
12912;SDS011;6524;51.368;11.984;2023-07-22T13:47:25;5.05;;;4.47;;
12912;SDS011;6524;51.368;11.984;2023-07-22T13:52:25;4.80;;;4.27;;
12912;SDS011;6524;51.368;11.984;2023-07-22T13:57:27;4.78;;;4.38;;
12912;SDS011;6524;51.368;11.984;2023-07-22T14:02:28;4.88;;;4.28;;
12912;SDS011;6524;51.368;11.984;2023-07-22T14:07:29;4.80;;;4.38;;
12912;SDS011;6524;51.368;11.984;2023-07-22T14:12:29;4.70;;;4.30;;
12912;SDS011;6524;51.368;11.984;2023-07-22T14:17:29;4.38;;;3.97;;
12912;SDS011;6524;51.368;11.984;2023-07-22T14:22:32;5.05;;;4.53;;
12912;SDS011;6524;51.368;11.984;2023-07-22T14:27:33;4.53;;;4.13;;
12912;SDS011;6524;51.368;11.984;2023-07-22T14:32:34;5.32;;;4.00;;
12912;SDS011;6524;51.368;11.984;2023-07-22T14:37:36;4.68;;;4.28;;
12912;SDS011;6524;51.368;11.984;2023-07-22T14:42:37;5.00;;;4.25;;
12912;SDS011;6524;51.368;11.984;2023-07-22T14:47:38;4.85;;;4.30;;
12912;SDS011;6524;51.368;11.984;2023-07-22T14:52:39;4.45;;;4.00;;
12912;SDS011;6524;51.368;11.984;2023-07-22T14:57:39;4.78;;;4.30;;
12912;SDS011;6524;51.368;11.984;2023-07-22T15:02:39;4.40;;;4.00;;
12912;SDS011;6524;51.368;11.984;2023-07-22T15:07:40;4.80;;;4.40;;
12912;SDS011;6524;51.368;11.984;2023-07-22T15:12:40;5.20;;;4.70;;
12912;SDS011;6524;51.368;11.984;2023-07-22T15:17:40;4.68;;;4.25;;
12912;SDS011;6524;51.368;11.984;2023-07-22T15:22:41;4.63;;;4.17;;
12912;SDS011;6524;51.368;11.984;2023-07-22T15:27:41;4.82;;;4.32;;
12912;SDS011;6524;51.368;11.984;2023-07-22T15:32:43;4.70;;;4.30;;
12912;SDS011;6524;51.368;11.984;2023-07-22T15:37:43;4.78;;;4.10;;
12912;SDS011;6524;51.368;11.984;2023-07-22T15:42:44;4.35;;;3.95;;
12912;SDS011;6524;51.368;11.984;2023-07-22T15:47:44;4.97;;;4.10;;
12912;SDS011;6524;51.368;11.984;2023-07-22T15:52:44;4.97;;;4.47;;
12912;SDS011;6524;51.368;11.984;2023-07-22T15:57:46;4.82;;;4.43;;
12912;SDS011;6524;51.368;11.984;2023-07-22T16:02:46;4.63;;;4.22;;
12912;SDS011;6524;51.368;11.984;2023-07-22T16:07:46;4.70;;;4.25;;
12912;SDS011;6524;51.368;11.984;2023-07-22T16:12:47;4.70;;;4.30;;
12912;SDS011;6524;51.368;11.984;2023-07-22T16:17:47;4.85;;;4.30;;
12912;SDS011;6524;51.368;11.984;2023-07-22T16:22:47;4.53;;;3.97;;
12912;SDS011;6524;51.368;11.984;2023-07-22T16:27:48;4.85;;;4.35;;
12912;SDS011;6524;51.368;11.984;2023-07-22T16:32:48;4.80;;;4.40;;
12912;SDS011;6524;51.368;11.984;2023-07-22T16:37:48;5.88;;;4.57;;
12912;SDS011;6524;51.368;11.984;2023-07-22T16:42:48;5.07;;;4.57;;
12912;SDS011;6524;51.368;11.984;2023-07-22T16:47:49;4.97;;;4.47;;
12912;SDS011;6524;51.368;11.984;2023-07-22T16:52:49;5.60;;;4.32;;
12912;SDS011;6524;51.368;11.984;2023-07-22T16:57:50;5.63;;;4.47;;
12912;SDS011;6524;51.368;11.984;2023-07-22T17:02:52;4.57;;;4.18;;
12912;SDS011;6524;51.368;11.984;2023-07-22T17:07:52;5.25;;;4.38;;
12912;SDS011;6524;51.368;11.984;2023-07-22T17:12:54;5.43;;;4.90;;
12912;SDS011;6524;51.368;11.984;2023-07-22T17:17:54;4.30;;;4.00;;
12912;SDS011;6524;51.368;11.984;2023-07-22T17:22:54;5.25;;;4.07;;
12912;SDS011;6524;51.368;11.984;2023-07-22T17:27:55;7.28;;;4.88;;
12912;SDS011;6524;51.368;11.984;2023-07-22T17:32:55;5.32;;;4.03;;
12912;SDS011;6524;51.368;11.984;2023-07-22T17:37:57;5.28;;;4.35;;
12912;SDS011;6524;51.368;11.984;2023-07-22T17:42:59;4.75;;;4.35;;
12912;SDS011;6524;51.368;11.984;2023-07-22T17:47:59;5.55;;;4.35;;
12912;SDS011;6524;51.368;11.984;2023-07-22T17:53:00;4.95;;;4.45;;
12912;SDS011;6524;51.368;11.984;2023-07-22T17:58:00;6.37;;;4.20;;
12912;SDS011;6524;51.368;11.984;2023-07-22T18:03:01;5.70;;;4.53;;
12912;SDS011;6524;51.368;11.984;2023-07-22T18:08:03;4.93;;;4.38;;
12912;SDS011;6524;51.368;11.984;2023-07-22T18:13:04;4.60;;;4.20;;
12912;SDS011;6524;51.368;11.984;2023-07-22T18:18:06;5.40;;;4.60;;
12912;SDS011;6524;51.368;11.984;2023-07-22T18:23:07;5.50;;;4.40;;
12912;SDS011;6524;51.368;11.984;2023-07-22T18:28:08;5.68;;;4.43;;
12912;SDS011;6524;51.368;11.984;2023-07-22T18:33:08;5.57;;;4.60;;
12912;SDS011;6524;51.368;11.984;2023-07-22T18:38:09;5.95;;;4.45;;
12912;SDS011;6524;51.368;11.984;2023-07-22T18:43:09;5.43;;;4.47;;
12912;SDS011;6524;51.368;11.984;2023-07-22T18:48:10;6.25;;;4.97;;
12912;SDS011;6524;51.368;11.984;2023-07-22T18:53:10;5.88;;;4.93;;
12912;SDS011;6524;51.368;11.984;2023-07-22T18:58:11;5.80;;;5.18;;
12912;SDS011;6524;51.368;11.984;2023-07-22T19:03:11;7.10;;;5.00;;
12912;SDS011;6524;51.368;11.984;2023-07-22T19:08:11;6.03;;;5.43;;
12912;SDS011;6524;51.368;11.984;2023-07-22T19:13:13;5.60;;;5.05;;
12912;SDS011;6524;51.368;11.984;2023-07-22T19:18:14;6.50;;;5.28;;
12912;SDS011;6524;51.368;11.984;2023-07-22T19:23:17;6.90;;;5.78;;
12912;SDS011;6524;51.368;11.984;2023-07-22T19:28:17;5.60;;;5.10;;
12912;SDS011;6524;51.368;11.984;2023-07-22T19:33:18;6.75;;;5.63;;
12912;SDS011;6524;51.368;11.984;2023-07-22T19:38:19;7.38;;;5.82;;
12912;SDS011;6524;51.368;11.984;2023-07-22T19:43:19;6.47;;;5.80;;
12912;SDS011;6524;51.368;11.984;2023-07-22T19:48:22;7.03;;;6.32;;
12912;SDS011;6524;51.368;11.984;2023-07-22T19:53:26;9.38;;;6.65;;
12912;SDS011;6524;51.368;11.984;2023-07-22T19:58:27;8.00;;;6.32;;
12912;SDS011;6524;51.368;11.984;2023-07-22T20:03:30;9.18;;;6.28;;
12912;SDS011;6524;51.368;11.984;2023-07-22T20:08:31;7.35;;;5.72;;
12912;SDS011;6524;51.368;11.984;2023-07-22T20:13:34;7.63;;;6.55;;
12912;SDS011;6524;51.368;11.984;2023-07-22T20:18:36;6.90;;;6.20;;
12912;SDS011;6524;51.368;11.984;2023-07-22T20:23:38;6.80;;;6.20;;
12912;SDS011;6524;51.368;11.984;2023-07-22T20:28:38;7.32;;;5.97;;
12912;SDS011;6524;51.368;11.984;2023-07-22T20:33:43;7.78;;;5.60;;
12912;SDS011;6524;51.368;11.984;2023-07-22T20:38:43;7.07;;;5.43;;
12912;SDS011;6524;51.368;11.984;2023-07-22T20:43:45;7.53;;;6.75;;
12912;SDS011;6524;51.368;11.984;2023-07-22T20:48:45;6.43;;;5.20;;
12912;SDS011;6524;51.368;11.984;2023-07-22T20:53:45;9.85;;;5.75;;
12912;SDS011;6524;51.368;11.984;2023-07-22T20:58:46;7.20;;;5.47;;
12912;SDS011;6524;51.368;11.984;2023-07-22T21:03:46;6.63;;;5.93;;
12912;SDS011;6524;51.368;11.984;2023-07-22T21:08:47;6.90;;;6.00;;
12912;SDS011;6524;51.368;11.984;2023-07-22T21:13:49;6.35;;;5.70;;
12912;SDS011;6524;51.368;11.984;2023-07-22T21:18:49;6.95;;;5.78;;
12912;SDS011;6524;51.368;11.984;2023-07-22T21:23:49;7.32;;;6.00;;
12912;SDS011;6524;51.368;11.984;2023-07-22T21:28:50;7.20;;;5.70;;
12912;SDS011;6524;51.368;11.984;2023-07-22T21:33:51;6.30;;;5.70;;
12912;SDS011;6524;51.368;11.984;2023-07-22T21:38:55;8.10;;;5.90;;
12912;SDS011;6524;51.368;11.984;2023-07-22T21:43:55;6.80;;;5.93;;
12912;SDS011;6524;51.368;11.984;2023-07-22T21:48:56;6.10;;;5.50;;
12912;SDS011;6524;51.368;11.984;2023-07-22T21:53:56;7.45;;;6.20;;
12912;SDS011;6524;51.368;11.984;2023-07-22T21:58:57;7.45;;;6.20;;
12912;SDS011;6524;51.368;11.984;2023-07-22T22:03:58;6.68;;;5.97;;
12912;SDS011;6524;51.368;11.984;2023-07-22T22:08:58;7.10;;;5.93;;
12912;SDS011;6524;51.368;11.984;2023-07-22T22:13:58;7.28;;;5.85;;
12912;SDS011;6524;51.368;11.984;2023-07-22T22:19:00;7.60;;;6.43;;
12912;SDS011;6524;51.368;11.984;2023-07-22T22:24:00;7.90;;;6.07;;
12912;SDS011;6524;51.368;11.984;2023-07-22T22:29:00;8.50;;;6.07;;
12912;SDS011;6524;51.368;11.984;2023-07-22T22:34:01;7.28;;;5.93;;
12912;SDS011;6524;51.368;11.984;2023-07-22T22:39:02;7.32;;;6.05;;
12912;SDS011;6524;51.368;11.984;2023-07-22T22:44:04;8.02;;;5.85;;
12912;SDS011;6524;51.368;11.984;2023-07-22T22:49:04;7.63;;;6.28;;
12912;SDS011;6524;51.368;11.984;2023-07-22T22:54:05;8.93;;;5.82;;
12912;SDS011;6524;51.368;11.984;2023-07-22T22:59:05;6.57;;;5.40;;
12912;SDS011;6524;51.368;11.984;2023-07-22T23:04:09;6.07;;;5.28;;
